Time;durP1;ratioP1;P1;durP2;ratioP2;P2;SDS_P1;SDS_P2;PMS_P1;PMS_P2;Temp;Humidity;BMP_temperature;BMP_pressure;BME280_temperature;BME280_humidity;BME280_pressure;Samples;Min_cycle;Max_cycle;Signal;HPM_P1;HPM_P2
2021/12/25 00:01:48;;;;;;;;;;;22.10;37.00;;;;;;487450;243;1208;-76
2021/12/25 00:03:49;;;;;;;;;;;22.00;37.00;;;;;;487396;243;2191;-76
2021/12/25 00:05:52;;;;;;;;;;;22.10;36.80;;;;;;487377;243;1319;-76
2021/12/25 00:07:52;;;;;;;;;;;22.00;37.10;;;;;;487265;244;1398;-76
2021/12/25 00:09:53;;;;;;;;;;;22.10;36.80;;;;;;487396;243;1200;-76
2021/12/25 00:11:54;;;;;;;;;;;22.00;37.00;;;;;;487526;243;1231;-76
2021/12/25 00:13:56;;;;;;;;;;;22.30;36.60;;;;;;487420;243;1100;-77
2021/12/25 00:15:57;;;;;;;;;;;22.30;36.50;;;;;;487329;243;1244;-76
2021/12/25 00:17:58;;;;;;;;;;;22.40;36.40;;;;;;487399;243;1023;-76
2021/12/25 00:20:00;;;;;;;;;;;22.30;36.50;;;;;;487607;243;1007;-76
2021/12/25 00:22:01;;;;;;;;;;;22.30;36.60;;;;;;487361;243;1098;-76
2021/12/25 00:24:02;;;;;;;;;;;22.10;36.70;;;;;;487411;243;2127;-76
2021/12/25 00:26:08;;;;;;;;;;;22.00;36.80;;;;;;487402;243;1225;-76
2021/12/25 00:28:19;;;;;;;;;;;22.20;36.60;;;;;;487227;244;1445;-76
2021/12/25 00:32:45;;;;;;;;;;;21.90;36.90;;;;;;487151;245;1175;-76
2021/12/25 00:34:37;;;;;;;;;;;21.90;36.90;;;;;;486828;244;1444;-76
2021/12/25 00:36:38;;;;;;;;;;;22.30;36.50;;;;;;487370;243;1119;-76
2021/12/25 00:38:41;;;;;;;;;;;22.00;36.80;;;;;;487407;243;1009;-76
2021/12/25 00:40:41;;;;;;;;;;;22.40;36.50;;;;;;487415;244;1457;-76
2021/12/25 00:42:42;;;;;;;;;;;21.90;36.90;;;;;;487326;243;2217;-76
2021/12/25 00:44:43;;;;;;;;;;;22.10;36.60;;;;;;487389;243;1080;-76
2021/12/25 00:46:45;;;;;;;;;;;21.90;37.00;;;;;;487287;243;1212;-76
2021/12/25 00:48:46;;;;;;;;;;;21.90;37.00;;;;;;487401;243;1197;-76
2021/12/25 00:50:47;;;;;;;;;;;22.10;37.00;;;;;;487367;243;1307;-76
2021/12/25 00:52:49;;;;;;;;;;;21.90;37.10;;;;;;487430;243;1190;-76
2021/12/25 00:54:50;;;;;;;;;;;21.80;36.90;;;;;;487389;243;1149;-76
2021/12/25 00:56:51;;;;;;;;;;;21.90;36.90;;;;;;487304;243;1225;-76
2021/12/25 00:58:53;;;;;;;;;;;22.00;37.20;;;;;;487375;243;1152;-76
2021/12/25 01:00:54;;;;;;;;;;;22.10;37.00;;;;;;487364;242;1369;-76
2021/12/25 01:02:55;;;;;;;;;;;21.60;37.40;;;;;;487343;243;2120;-76
2021/12/25 01:04:57;;;;;;;;;;;21.70;37.60;;;;;;487440;243;949;-76
2021/12/25 01:06:58;;;;;;;;;;;21.40;38.00;;;;;;487352;243;1303;-76
2021/12/25 01:08:59;;;;;;;;;;;21.40;38.00;;;;;;487407;243;944;-76
2021/12/25 01:11:01;;;;;;;;;;;21.70;37.80;;;;;;487396;243;1336;-76
2021/12/25 01:13:08;;;;;;;;;;;21.50;37.60;;;;;;487380;243;1157;-76
2021/12/25 01:15:06;;;;;;;;;;;21.90;37.60;;;;;;487231;244;1734;-76
2021/12/25 01:17:23;;;;;;;;;;;21.60;37.70;;;;;;487219;244;1490;-76
2021/12/25 01:21:53;;;;;;;;;;;21.60;37.80;;;;;;487036;245;1223;-76
2021/12/25 01:24:10;;;;;;;;;;;21.30;38.30;;;;;;486874;244;2182;-76
2021/12/25 01:26:13;;;;;;;;;;;21.30;38.20;;;;;;486263;244;1512;-76
2021/12/25 01:30:33;;;;;;;;;;;21.20;38.30;;;;;;487443;244;1101;-76
2021/12/25 01:33:02;;;;;;;;;;;21.30;38.30;;;;;;486972;244;1634;-76
2021/12/25 01:35:08;;;;;;;;;;;21.40;38.10;;;;;;486671;244;1434;-76
2021/12/25 01:37:03;;;;;;;;;;;21.80;37.70;;;;;;486578;244;1512;-76
2021/12/25 01:39:08;;;;;;;;;;;21.50;38.20;;;;;;487326;244;1408;-76
2021/12/25 01:41:15;;;;;;;;;;;21.40;38.00;;;;;;487210;244;1413;-76
2021/12/25 01:47:47;;;;;;;;;;;21.90;37.30;;;;;;487288;245;1097;-76
2021/12/25 01:49:46;;;;;;;;;;;21.80;37.70;;;;;;487409;244;1565;-76
2021/12/25 01:51:47;;;;;;;;;;;21.70;38.00;;;;;;487289;243;1123;-76
2021/12/25 01:53:49;;;;;;;;;;;21.50;37.70;;;;;;487375;243;938;-76
2021/12/25 01:55:50;;;;;;;;;;;21.50;37.90;;;;;;487407;243;1178;-76
2021/12/25 01:57:51;;;;;;;;;;;21.60;38.20;;;;;;487514;243;1121;-76
2021/12/25 01:59:53;;;;;;;;;;;21.40;37.90;;;;;;487385;243;945;-76
2021/12/25 02:01:54;;;;;;;;;;;21.50;38.10;;;;;;487261;243;1197;-76
2021/12/25 02:03:55;;;;;;;;;;;21.90;37.60;;;;;;487423;243;2126;-76
2021/12/25 02:05:57;;;;;;;;;;;21.50;37.80;;;;;;487412;243;1228;-76
2021/12/25 02:07:58;;;;;;;;;;;21.40;38.00;;;;;;487405;243;1082;-76
2021/12/25 02:09:59;;;;;;;;;;;21.30;38.30;;;;;;487422;243;939;-76
2021/12/25 02:12:01;;;;;;;;;;;21.60;37.90;;;;;;487442;243;1186;-76
2021/12/25 02:14:02;;;;;;;;;;;21.80;37.70;;;;;;487369;243;1106;-76
2021/12/25 02:16:10;;;;;;;;;;;21.40;38.00;;;;;;487249;243;1250;-76
2021/12/25 02:18:12;;;;;;;;;;;21.50;38.20;;;;;;487136;244;1339;-76
2021/12/25 02:20:09;;;;;;;;;;;21.20;38.50;;;;;;487178;244;1407;-76
2021/12/25 02:22:11;;;;;;;;;;;21.50;38.00;;;;;;487347;243;1092;-76
2021/12/25 02:24:12;;;;;;;;;;;21.50;38.00;;;;;;487534;243;2185;-76
2021/12/25 02:26:13;;;;;;;;;;;21.60;38.30;;;;;;487329;240;1280;-76
2021/12/25 02:28:15;;;;;;;;;;;21.30;38.30;;;;;;487326;243;1111;-76
2021/12/25 02:30:16;;;;;;;;;;;21.50;37.80;;;;;;487351;243;944;-76
2021/12/25 02:32:17;;;;;;;;;;;21.50;37.90;;;;;;487266;243;1112;-76
2021/12/25 02:34:19;;;;;;;;;;;21.60;38.00;;;;;;487381;243;1229;-76
2021/12/25 02:36:20;;;;;;;;;;;21.50;38.10;;;;;;487324;243;1141;-76
2021/12/25 02:38:21;;;;;;;;;;;21.40;38.20;;;;;;487404;243;1101;-76
2021/12/25 02:40:23;;;;;;;;;;;21.40;38.20;;;;;;487402;243;926;-76
2021/12/25 02:42:24;;;;;;;;;;;21.70;38.00;;;;;;487381;243;1169;-76
2021/12/25 02:44:25;;;;;;;;;;;21.40;38.10;;;;;;487441;243;2178;-76
2021/12/25 02:46:27;;;;;;;;;;;21.20;38.30;;;;;;487348;243;1223;-76
2021/12/25 02:48:28;;;;;;;;;;;21.30;38.30;;;;;;487496;243;1052;-76
2021/12/25 02:50:29;;;;;;;;;;;21.60;38.10;;;;;;487419;243;946;-76
2021/12/25 02:52:31;;;;;;;;;;;21.30;38.30;;;;;;487432;243;1040;-76
2021/12/25 02:54:32;;;;;;;;;;;21.50;38.00;;;;;;487363;243;1030;-76
2021/12/25 02:56:33;;;;;;;;;;;21.30;38.30;;;;;;487332;243;1236;-76
2021/12/25 02:58:35;;;;;;;;;;;21.40;38.20;;;;;;487431;243;1016;-76
2021/12/25 03:00:36;;;;;;;;;;;21.50;38.30;;;;;;487413;243;947;-76
2021/12/25 03:02:37;;;;;;;;;;;21.20;38.40;;;;;;487346;243;1065;-76
2021/12/25 03:04:39;;;;;;;;;;;21.40;38.20;;;;;;487386;243;2123;-76
2021/12/25 03:06:40;;;;;;;;;;;21.80;38.00;;;;;;487238;243;1186;-76
2021/12/25 03:08:41;;;;;;;;;;;21.40;37.90;;;;;;487535;243;1148;-76
2021/12/25 03:10:43;;;;;;;;;;;21.50;38.20;;;;;;487411;243;971;-76
2021/12/25 03:12:51;;;;;;;;;;;21.10;38.50;;;;;;487501;243;1194;-76
2021/12/25 03:15:04;;;;;;;;;;;21.40;38.00;;;;;;487364;244;1457;-76
2021/12/25 03:17:03;;;;;;;;;;;21.70;38.10;;;;;;487468;240;1424;-76
2021/12/25 03:19:07;;;;;;;;;;;21.50;38.10;;;;;;487453;244;977;-76
2021/12/25 03:21:05;;;;;;;;;;;21.30;38.10;;;;;;487133;244;1675;-76
2021/12/25 03:23:07;;;;;;;;;;;21.60;38.20;;;;;;487506;243;1105;-76
2021/12/25 03:25:08;;;;;;;;;;;21.40;38.00;;;;;;487438;243;2131;-76
2021/12/25 03:27:10;;;;;;;;;;;21.50;37.80;;;;;;487487;243;1208;-76
2021/12/25 03:29:11;;;;;;;;;;;21.30;38.40;;;;;;487485;243;925;-76
2021/12/25 03:31:16;;;;;;;;;;;21.40;38.00;;;;;;487413;243;1296;-76
2021/12/25 03:33:15;;;;;;;;;;;21.20;38.50;;;;;;487497;244;1486;-76
2021/12/25 03:35:16;;;;;;;;;;;21.50;38.00;;;;;;487417;243;957;-76
2021/12/25 03:37:18;;;;;;;;;;;21.40;38.40;;;;;;487331;243;1047;-76
2021/12/25 03:39:19;;;;;;;;;;;21.50;37.70;;;;;;487403;243;923;-76
2021/12/25 03:41:20;;;;;;;;;;;21.80;37.80;;;;;;487399;243;1660;-76
2021/12/25 03:43:22;;;;;;;;;;;21.50;37.80;;;;;;487375;243;1112;-76
2021/12/25 03:45:23;;;;;;;;;;;21.60;37.80;;;;;;487370;243;2179;-76
2021/12/25 03:47:29;;;;;;;;;;;21.70;37.90;;;;;;487310;243;1060;-76
2021/12/25 03:49:34;;;;;;;;;;;21.70;37.70;;;;;;487354;243;1469;-76
2021/12/25 03:58:31;;;;;;;;;;;21.50;37.90;;;;;;487422;244;1165;-76
2021/12/25 04:00:31;;;;;;;;;;;21.50;38.00;;;;;;487206;244;1496;-77
2021/12/25 04:02:35;;;;;;;;;;;21.40;38.00;;;;;;487237;243;1383;-76
2021/12/25 04:04:37;;;;;;;;;;;21.70;37.50;;;;;;487416;244;2119;-76
2021/12/25 04:06:36;;;;;;;;;;;21.90;37.40;;;;;;487174;244;1442;-76
2021/12/25 04:08:42;;;;;;;;;;;21.50;37.70;;;;;;487419;243;1163;-76
2021/12/25 04:10:40;;;;;;;;;;;21.80;37.60;;;;;;487326;244;1415;-76
2021/12/25 04:12:41;;;;;;;;;;;21.70;37.60;;;;;;487463;243;1153;-76
2021/12/25 04:14:42;;;;;;;;;;;21.70;37.70;;;;;;487361;243;970;-77
2021/12/25 04:16:44;;;;;;;;;;;21.80;37.30;;;;;;487311;243;1202;-76
2021/12/25 04:18:45;;;;;;;;;;;21.90;37.20;;;;;;487381;243;1205;-76
2021/12/25 04:20:46;;;;;;;;;;;22.10;37.00;;;;;;487335;243;1168;-76
2021/12/25 04:22:53;;;;;;;;;;;21.90;37.20;;;;;;487409;243;1259;-76
2021/12/25 04:24:50;;;;;;;;;;;22.10;37.00;;;;;;487018;244;2198;-76
2021/12/25 04:26:51;;;;;;;;;;;22.10;36.70;;;;;;487325;244;1412;-76
2021/12/25 04:29:03;;;;;;;;;;;22.40;36.50;;;;;;487339;243;1246;-76
2021/12/25 04:31:09;;;;;;;;;;;22.00;37.00;;;;;;486659;244;1428;-76
2021/12/25 04:42:38;;;;;;;;;;;22.00;37.20;;;;;;486815;244;1462;-76
2021/12/25 04:49:53;;;;;;;;;;;22.20;36.50;;;;;;487409;244;987;-76
2021/12/25 05:03:37;;;;;;;;;;;22.50;36.20;;;;;;487359;245;1042;-76
2021/12/25 05:05:28;;;;;;;;;;;22.20;36.90;;;;;;486662;244;2186;-76
2021/12/25 05:07:28;;;;;;;;;;;22.30;36.40;;;;;;487277;244;1411;-76
2021/12/25 05:09:29;;;;;;;;;;;22.20;36.80;;;;;;487429;243;1212;-76
2021/12/25 05:11:30;;;;;;;;;;;21.80;37.00;;;;;;487338;243;1089;-77
2021/12/25 05:13:32;;;;;;;;;;;22.10;37.10;;;;;;487542;243;1140;-77
2021/12/25 05:15:33;;;;;;;;;;;22.00;37.20;;;;;;487431;243;1000;-76
2021/12/25 05:17:34;;;;;;;;;;;22.00;37.00;;;;;;487382;243;1134;-76
2021/12/25 05:19:36;;;;;;;;;;;22.60;36.40;;;;;;487453;243;1098;-76
2021/12/25 05:21:37;;;;;;;;;;;22.10;36.60;;;;;;487396;243;1236;-76
2021/12/25 05:23:38;;;;;;;;;;;21.80;37.10;;;;;;487411;243;1111;-76
2021/12/25 05:25:40;;;;;;;;;;;21.90;37.20;;;;;;487419;243;2119;-76
2021/12/25 05:27:41;;;;;;;;;;;21.90;37.40;;;;;;487503;243;1567;-76
2021/12/25 05:29:46;;;;;;;;;;;21.80;37.40;;;;;;487416;243;1225;-76
2021/12/25 05:31:44;;;;;;;;;;;21.80;37.30;;;;;;487267;244;1500;-76
2021/12/25 05:33:45;;;;;;;;;;;21.90;37.40;;;;;;487446;243;1198;-76
2021/12/25 05:35:47;;;;;;;;;;;21.80;37.30;;;;;;487283;243;1199;-76
2021/12/25 05:37:48;;;;;;;;;;;21.80;37.40;;;;;;487322;243;1205;-76
2021/12/25 05:39:51;;;;;;;;;;;21.90;37.00;;;;;;487415;243;955;-76
2021/12/25 05:41:51;;;;;;;;;;;22.00;37.00;;;;;;487365;243;1344;-76
2021/12/25 05:43:53;;;;;;;;;;;22.10;36.80;;;;;;487420;243;1171;-76
2021/12/25 05:45:54;;;;;;;;;;;22.40;36.50;;;;;;487398;243;2182;-76
2021/12/25 05:47:55;;;;;;;;;;;22.00;37.00;;;;;;487514;243;1084;-76
2021/12/25 05:49:57;;;;;;;;;;;22.20;36.60;;;;;;487377;243;1124;-77
2021/12/25 05:51:58;;;;;;;;;;;22.10;36.80;;;;;;487275;243;1189;-76
2021/12/25 05:53:59;;;;;;;;;;;21.80;37.20;;;;;;487414;243;974;-76
2021/12/25 05:56:01;;;;;;;;;;;21.60;37.50;;;;;;487336;243;1141;-76
2021/12/25 05:58:03;;;;;;;;;;;21.80;37.20;;;;;;487345;243;1162;-76
2021/12/25 06:00:04;;;;;;;;;;;21.60;37.50;;;;;;487550;243;1337;-76
2021/12/25 06:02:05;;;;;;;;;;;21.80;37.30;;;;;;487258;243;1210;-76
2021/12/25 06:04:06;;;;;;;;;;;21.60;37.40;;;;;;487393;243;982;-76
2021/12/25 06:06:08;;;;;;;;;;;21.50;37.60;;;;;;487356;243;2107;-76
2021/12/25 06:08:09;;;;;;;;;;;21.50;37.90;;;;;;487508;243;1074;-76
2021/12/25 06:10:11;;;;;;;;;;;21.50;37.80;;;;;;487433;243;929;-76
2021/12/25 06:12:14;;;;;;;;;;;21.30;38.10;;;;;;487467;240;1171;-77
2021/12/25 06:14:18;;;;;;;;;;;21.20;38.10;;;;;;487261;245;1405;-76
2021/12/25 06:16:17;;;;;;;;;;;21.40;37.70;;;;;;487268;244;1508;-76
2021/12/25 06:18:18;;;;;;;;;;;21.60;37.60;;;;;;487392;243;946;-76
2021/12/25 06:20:19;;;;;;;;;;;21.30;38.00;;;;;;487412;243;972;-76
2021/12/25 06:22:21;;;;;;;;;;;21.20;38.20;;;;;;487342;243;1102;-76
2021/12/25 06:24:22;;;;;;;;;;;21.10;38.20;;;;;;487378;243;1124;-76
2021/12/25 06:26:23;;;;;;;;;;;21.30;38.20;;;;;;487346;243;2186;-76
2021/12/25 06:28:25;;;;;;;;;;;21.40;37.90;;;;;;487400;243;1152;-76
2021/12/25 06:30:26;;;;;;;;;;;21.60;37.40;;;;;;487408;243;1155;-76
2021/12/25 06:32:27;;;;;;;;;;;21.60;37.60;;;;;;487420;243;1050;-76
2021/12/25 06:34:29;;;;;;;;;;;21.20;37.90;;;;;;487380;243;1057;-76
2021/12/25 06:36:30;;;;;;;;;;;21.20;38.00;;;;;;487380;243;1220;-76
2021/12/25 06:38:32;;;;;;;;;;;21.10;38.20;;;;;;487356;243;1137;-76
2021/12/25 06:40:33;;;;;;;;;;;21.50;37.80;;;;;;487378;243;1115;-76
2021/12/25 06:42:34;;;;;;;;;;;21.20;37.90;;;;;;487434;244;1389;-76
2021/12/25 06:44:36;;;;;;;;;;;21.40;37.90;;;;;;487365;243;1173;-76
2021/12/25 06:46:37;;;;;;;;;;;21.50;37.80;;;;;;487394;243;2110;-76
2021/12/25 06:48:38;;;;;;;;;;;21.20;37.80;;;;;;487450;243;1117;-76
2021/12/25 06:50:40;;;;;;;;;;;21.40;37.70;;;;;;487456;243;1081;-76
2021/12/25 06:52:45;;;;;;;;;;;21.40;37.40;;;;;;487352;243;1218;-76
2021/12/25 06:54:43;;;;;;;;;;;21.40;37.60;;;;;;487272;244;1374;-76
2021/12/25 06:56:45;;;;;;;;;;;21.40;37.60;;;;;;487346;243;1318;-76
2021/12/25 06:58:45;;;;;;;;;;;21.70;37.40;;;;;;487502;244;1523;-76
2021/12/25 07:00:48;;;;;;;;;;;21.70;37.40;;;;;;487447;243;1215;-76
2021/12/25 07:02:48;;;;;;;;;;;21.80;37.20;;;;;;487222;244;1453;-76
2021/12/25 07:04:49;;;;;;;;;;;21.60;37.10;;;;;;487369;243;2112;-76
2021/12/25 07:06:51;;;;;;;;;;;21.70;36.80;;;;;;487430;243;1153;-76
2021/12/25 07:08:52;;;;;;;;;;;21.70;36.80;;;;;;487410;243;959;-76
2021/12/25 07:10:53;;;;;;;;;;;21.40;37.20;;;;;;487405;243;1072;-76
2021/12/25 07:12:55;;;;;;;;;;;21.30;37.70;;;;;;487418;243;1029;-77
2021/12/25 07:14:56;;;;;;;;;;;21.50;37.20;;;;;;487392;243;1181;-76
2021/12/25 07:16:57;;;;;;;;;;;21.40;37.50;;;;;;487453;243;1123;-76
2021/12/25 07:18:59;;;;;;;;;;;21.60;37.40;;;;;;487427;243;956;-76
2021/12/25 07:21:00;;;;;;;;;;;21.70;36.80;;;;;;487409;243;1133;-76
2021/12/25 07:23:01;;;;;;;;;;;21.60;36.80;;;;;;487346;243;1080;-76
2021/12/25 07:25:03;;;;;;;;;;;21.70;37.00;;;;;;487433;243;2190;-76
2021/12/25 07:27:05;;;;;;;;;;;21.60;37.20;;;;;;487512;243;1061;-76
2021/12/25 07:29:05;;;;;;;;;;;21.40;37.20;;;;;;487345;244;1397;-76
2021/12/25 07:31:08;;;;;;;;;;;21.60;37.00;;;;;;487414;243;1188;-76
2021/12/25 07:33:08;;;;;;;;;;;21.40;37.50;;;;;;487349;243;1470;-76
2021/12/25 07:35:09;;;;;;;;;;;21.60;37.00;;;;;;487373;243;1105;-76
2021/12/25 07:37:12;;;;;;;;;;;22.00;36.90;;;;;;487290;243;1107;-76
2021/12/25 07:39:12;;;;;;;;;;;21.60;36.90;;;;;;487321;244;1390;-76
2021/12/25 07:41:14;;;;;;;;;;;21.60;37.00;;;;;;487371;243;1174;-76
2021/12/25 07:43:15;;;;;;;;;;;21.30;37.50;;;;;;487516;243;1079;-76
2021/12/25 07:45:16;;;;;;;;;;;21.60;37.50;;;;;;487395;243;2193;-76
2021/12/25 07:47:21;;;;;;;;;;;21.60;37.40;;;;;;487317;243;1132;-76
2021/12/25 07:49:20;;;;;;;;;;;21.60;37.00;;;;;;487214;244;1306;-76
2021/12/25 07:51:20;;;;;;;;;;;21.80;37.20;;;;;;487350;244;1393;-76
2021/12/25 07:53:21;;;;;;;;;;;21.30;37.50;;;;;;487412;243;1145;-76
2021/12/25 07:55:23;;;;;;;;;;;21.60;37.20;;;;;;487340;243;958;-76
2021/12/25 07:57:24;;;;;;;;;;;21.40;37.70;;;;;;487362;243;1078;-76
2021/12/25 07:59:26;;;;;;;;;;;21.10;37.90;;;;;;487454;243;1119;-76
2021/12/25 08:01:28;;;;;;;;;;;21.60;37.30;;;;;;487353;243;1180;-76
2021/12/25 08:03:28;;;;;;;;;;;21.50;37.40;;;;;;487446;243;1429;-76
2021/12/25 08:05:30;;;;;;;;;;;21.30;37.50;;;;;;487360;243;2175;-76
2021/12/25 08:07:31;;;;;;;;;;;21.40;37.40;;;;;;487333;243;1151;-76
2021/12/25 08:09:32;;;;;;;;;;;21.20;37.80;;;;;;487454;243;1223;-76
2021/12/25 08:11:34;;;;;;;;;;;21.40;37.80;;;;;;487408;243;1226;-76
2021/12/25 08:13:35;;;;;;;;;;;21.30;37.60;;;;;;487408;243;1137;-76
2021/12/25 08:15:36;;;;;;;;;;;21.10;37.80;;;;;;487392;243;1243;-76
2021/12/25 08:17:38;;;;;;;;;;;21.40;37.50;;;;;;487494;243;1086;-76
2021/12/25 08:19:40;;;;;;;;;;;21.10;38.00;;;;;;487354;243;985;-76
2021/12/25 08:21:40;;;;;;;;;;;21.20;37.70;;;;;;487335;243;1318;-76
2021/12/25 08:23:42;;;;;;;;;;;21.50;37.30;;;;;;487389;243;1154;-76
2021/12/25 08:25:43;;;;;;;;;;;21.40;37.60;;;;;;487419;243;2123;-76
2021/12/25 08:27:44;;;;;;;;;;;21.40;37.60;;;;;;487446;243;1125;-76
2021/12/25 08:29:46;;;;;;;;;;;21.20;37.70;;;;;;487419;243;983;-76
2021/12/25 08:31:47;;;;;;;;;;;21.60;37.10;;;;;;487409;243;1184;-76
2021/12/25 08:33:48;;;;;;;;;;;21.60;37.20;;;;;;487414;243;1048;-76
2021/12/25 08:35:50;;;;;;;;;;;21.50;37.20;;;;;;487405;243;1422;-76
2021/12/25 08:37:51;;;;;;;;;;;21.60;37.10;;;;;;487324;243;1089;-76
2021/12/25 08:39:52;;;;;;;;;;;21.70;37.10;;;;;;487420;243;999;-77
2021/12/25 08:42:00;;;;;;;;;;;21.70;36.90;;;;;;487368;243;1193;-77
2021/12/25 08:43:59;;;;;;;;;;;21.70;37.10;;;;;;487048;244;1445;-76
2021/12/25 08:46:03;;;;;;;;;;;21.70;36.80;;;;;;487139;244;2186;-76
2021/12/25 08:48:03;;;;;;;;;;;22.00;36.60;;;;;;487409;243;1326;-76
2021/12/25 08:50:04;;;;;;;;;;;21.70;36.80;;;;;;487377;243;989;-77
2021/12/25 08:52:06;;;;;;;;;;;21.80;37.00;;;;;;487333;243;1125;-76
2021/12/25 08:54:07;;;;;;;;;;;21.90;36.60;;;;;;487428;243;953;-76
2021/12/25 08:56:08;;;;;;;;;;;22.20;36.20;;;;;;487387;243;1108;-76
2021/12/25 08:58:10;;;;;;;;;;;22.10;36.60;;;;;;487349;243;1085;-76
2021/12/25 09:00:11;;;;;;;;;;;22.10;36.40;;;;;;487463;243;1075;-76
2021/12/25 09:02:14;;;;;;;;;;;22.10;36.50;;;;;;487479;240;1223;-76
2021/12/25 09:04:14;;;;;;;;;;;22.20;36.20;;;;;;487229;244;1486;-76
2021/12/25 09:06:15;;;;;;;;;;;21.90;36.60;;;;;;487312;243;2182;-76
2021/12/25 09:08:17;;;;;;;;;;;21.90;37.00;;;;;;487328;243;1121;-76
2021/12/25 09:10:18;;;;;;;;;;;21.60;37.00;;;;;;487388;243;943;-76
2021/12/25 09:12:21;;;;;;;;;;;22.00;36.80;;;;;;487311;243;1332;-76
2021/12/25 09:14:21;;;;;;;;;;;21.90;36.70;;;;;;487464;244;1419;-76
2021/12/25 09:16:22;;;;;;;;;;;22.00;36.80;;;;;;487280;243;1219;-76
2021/12/25 09:18:24;;;;;;;;;;;21.60;37.30;;;;;;487384;243;1178;-76
2021/12/25 09:20:25;;;;;;;;;;;21.90;36.70;;;;;;487400;243;1114;-76
2021/12/25 09:22:26;;;;;;;;;;;21.80;36.90;;;;;;487409;243;1156;-76
2021/12/25 09:24:28;;;;;;;;;;;21.60;37.50;;;;;;487429;243;1050;-76
2021/12/25 09:26:29;;;;;;;;;;;21.80;37.30;;;;;;487359;243;2174;-76
2021/12/25 09:28:30;;;;;;;;;;;21.80;37.10;;;;;;487443;243;976;-76
2021/12/25 09:30:32;;;;;;;;;;;21.80;36.90;;;;;;487434;243;933;-76
2021/12/25 09:32:33;;;;;;;;;;;21.70;37.20;;;;;;487360;243;1291;-76
2021/12/25 09:34:34;;;;;;;;;;;21.80;37.20;;;;;;487397;243;954;-76
2021/12/25 09:36:36;;;;;;;;;;;21.90;37.40;;;;;;487245;243;1024;-76
2021/12/25 09:38:37;;;;;;;;;;;21.70;37.20;;;;;;487337;243;1085;-76
2021/12/25 09:40:38;;;;;;;;;;;21.90;37.00;;;;;;487301;243;1057;-76
2021/12/25 09:42:41;;;;;;;;;;;22.00;37.10;;;;;;487290;243;991;-76
2021/12/25 09:44:41;;;;;;;;;;;22.10;37.00;;;;;;487543;244;1457;-76
2021/12/25 09:46:42;;;;;;;;;;;22.10;36.90;;;;;;487338;243;2123;-76
2021/12/25 09:48:44;;;;;;;;;;;21.90;37.20;;;;;;487420;240;1208;-76
2021/12/25 09:50:45;;;;;;;;;;;22.10;36.80;;;;;;487360;243;1079;-76
2021/12/25 09:52:46;;;;;;;;;;;22.00;37.00;;;;;;487328;243;1102;-76
2021/12/25 09:54:48;;;;;;;;;;;22.30;36.80;;;;;;487388;243;1027;-76
2021/12/25 09:56:49;;;;;;;;;;;22.10;36.90;;;;;;487459;243;1080;-76
2021/12/25 09:58:50;;;;;;;;;;;22.00;37.00;;;;;;487543;243;1104;-76
2021/12/25 10:00:52;;;;;;;;;;;21.80;37.20;;;;;;487374;243;1110;-76
2021/12/25 10:02:53;;;;;;;;;;;22.20;37.10;;;;;;487443;243;1189;-76
2021/12/25 10:04:54;;;;;;;;;;;22.00;37.00;;;;;;487553;243;1110;-76
2021/12/25 10:06:56;;;;;;;;;;;22.10;37.00;;;;;;487378;243;2127;-76
2021/12/25 10:08:57;;;;;;;;;;;22.10;37.00;;;;;;487464;243;993;-76
2021/12/25 10:11:00;;;;;;;;;;;21.90;37.20;;;;;;487392;240;1231;-76
2021/12/25 10:13:00;;;;;;;;;;;22.00;37.30;;;;;;487339;244;1244;-76
2021/12/25 10:15:01;;;;;;;;;;;22.00;37.30;;;;;;487415;243;1031;-76
2021/12/25 10:17:02;;;;;;;;;;;22.10;37.50;;;;;;487335;243;1220;-76
2021/12/25 10:19:04;;;;;;;;;;;21.80;37.70;;;;;;487384;243;1182;-77
2021/12/25 10:21:05;;;;;;;;;;;21.40;38.30;;;;;;487364;240;1208;-76
2021/12/25 10:23:08;;;;;;;;;;;21.40;38.60;;;;;;487358;243;1084;-76
2021/12/25 10:25:09;;;;;;;;;;;21.60;38.00;;;;;;487460;244;1457;-76
2021/12/25 10:27:09;;;;;;;;;;;21.70;38.10;;;;;;487429;243;2194;-76
2021/12/25 10:29:11;;;;;;;;;;;21.50;38.30;;;;;;487391;243;1177;-76
2021/12/25 10:31:16;;;;;;;;;;;21.40;38.70;;;;;;487311;243;1179;-76
2021/12/25 10:33:14;;;;;;;;;;;21.20;39.10;;;;;;487091;244;1476;-76
2021/12/25 10:35:15;;;;;;;;;;;21.20;38.70;;;;;;487428;243;943;-76
2021/12/25 10:37:17;;;;;;;;;;;21.60;38.40;;;;;;487478;243;1188;-76
2021/12/25 10:39:18;;;;;;;;;;;21.50;38.70;;;;;;487424;243;948;-76
2021/12/25 10:41:22;;;;;;;;;;;21.60;38.50;;;;;;487420;243;1247;-76
2021/12/25 10:43:21;;;;;;;;;;;21.80;38.20;;;;;;487490;244;1310;-76
2021/12/25 10:45:24;;;;;;;;;;;21.70;38.20;;;;;;487385;243;1174;-77
2021/12/25 10:47:24;;;;;;;;;;;21.70;38.20;;;;;;487337;244;2174;-76
2021/12/25 10:49:25;;;;;;;;;;;21.40;38.50;;;;;;487406;243;1109;-76
2021/12/25 10:51:27;;;;;;;;;;;21.60;38.50;;;;;;487365;240;1133;-76
2021/12/25 10:53:28;;;;;;;;;;;21.40;38.50;;;;;;487411;243;1024;-76
2021/12/25 10:55:29;;;;;;;;;;;21.40;38.50;;;;;;487482;243;1109;-76
2021/12/25 10:57:31;;;;;;;;;;;21.40;38.90;;;;;;487389;243;1148;-76
2021/12/25 10:59:32;;;;;;;;;;;21.30;38.90;;;;;;487377;243;1103;-76
2021/12/25 11:01:36;;;;;;;;;;;21.60;38.80;;;;;;487416;243;1212;-76
2021/12/25 11:03:35;;;;;;;;;;;21.30;38.80;;;;;;487156;244;1460;-76
2021/12/25 11:05:36;;;;;;;;;;;21.60;38.70;;;;;;487331;243;1119;-76
2021/12/25 11:07:37;;;;;;;;;;;21.40;39.00;;;;;;487213;243;2182;-76
2021/12/25 11:09:39;;;;;;;;;;;21.50;38.50;;;;;;487375;243;1041;-76
2021/12/25 11:11:40;;;;;;;;;;;21.50;38.70;;;;;;487360;243;1127;-76
2021/12/25 11:13:41;;;;;;;;;;;21.30;38.90;;;;;;487524;243;1073;-76
2021/12/25 11:15:43;;;;;;;;;;;21.50;38.50;;;;;;487416;243;1019;-76
2021/12/25 11:17:49;;;;;;;;;;;21.30;38.90;;;;;;487346;243;1161;-76
2021/12/25 11:19:45;;;;;;;;;;;21.60;38.50;;;;;;487130;244;1445;-76
2021/12/25 11:21:48;;;;;;;;;;;21.20;39.00;;;;;;487284;243;1260;-76
2021/12/25 11:23:48;;;;;;;;;;;21.30;38.80;;;;;;487511;244;1472;-76
2021/12/25 11:25:49;;;;;;;;;;;21.30;39.00;;;;;;487368;243;1202;-76
2021/12/25 11:27:51;;;;;;;;;;;21.10;39.10;;;;;;487331;243;2198;-76
2021/12/25 11:29:52;;;;;;;;;;;21.30;38.90;;;;;;487423;243;1006;-76
2021/12/25 11:31:53;;;;;;;;;;;21.30;39.00;;;;;;487461;243;1172;-76
2021/12/25 11:33:55;;;;;;;;;;;21.50;38.30;;;;;;487428;243;1183;-76
2021/12/25 11:35:56;;;;;;;;;;;21.60;38.30;;;;;;487428;243;1159;-76
2021/12/25 11:37:58;;;;;;;;;;;21.10;39.10;;;;;;487381;243;1092;-76
2021/12/25 11:39:59;;;;;;;;;;;21.20;38.90;;;;;;487437;243;948;-76
2021/12/25 11:42:00;;;;;;;;;;;21.70;38.60;;;;;;487484;243;1115;-76
2021/12/25 11:44:05;;;;;;;;;;;21.30;38.50;;;;;;487442;243;961;-76
2021/12/25 11:46:06;;;;;;;;;;;21.40;38.20;;;;;;487312;240;1330;-76
2021/12/25 11:48:04;;;;;;;;;;;21.40;38.50;;;;;;487195;244;2191;-76
2021/12/25 11:50:06;;;;;;;;;;;21.30;38.70;;;;;;487393;243;947;-76
2021/12/25 11:52:07;;;;;;;;;;;21.70;38.40;;;;;;487298;243;1192;-76
2021/12/25 11:54:16;;;;;;;;;;;21.40;38.60;;;;;;487440;243;1043;-76
2021/12/25 11:58:36;;;;;;;;;;;21.40;38.60;;;;;;487474;243;1225;-76
2021/12/25 12:00:22;;;;;;;;;;;21.30;38.60;;;;;;486636;244;1374;-76
2021/12/25 12:02:23;;;;;;;;;;;21.40;38.50;;;;;;487375;243;1129;-76
2021/12/25 12:04:25;;;;;;;;;;;21.50;38.40;;;;;;487420;243;1211;-76
2021/12/25 12:06:26;;;;;;;;;;;21.40;38.50;;;;;;487334;243;1202;-76
2021/12/25 12:08:27;;;;;;;;;;;21.30;38.70;;;;;;487361;243;2183;-76
2021/12/25 12:10:29;;;;;;;;;;;21.30;39.00;;;;;;487389;243;955;-76
2021/12/25 12:12:30;;;;;;;;;;;21.30;38.90;;;;;;487436;243;1159;-76
2021/12/25 12:14:31;;;;;;;;;;;21.30;38.80;;;;;;487403;243;1054;-76
2021/12/25 12:16:33;;;;;;;;;;;21.30;39.00;;;;;;487319;243;1155;-76
2021/12/25 12:18:34;;;;;;;;;;;21.30;39.10;;;;;;487491;243;1145;-76
2021/12/25 12:20:35;;;;;;;;;;;21.30;38.70;;;;;;487553;243;1196;-76
2021/12/25 12:22:45;;;;;;;;;;;21.40;38.60;;;;;;487496;243;1212;-76
2021/12/25 12:24:49;;;;;;;;;;;21.50;38.30;;;;;;487200;245;1242;-76
2021/12/25 12:26:47;;;;;;;;;;;21.40;38.50;;;;;;487145;244;2178;-76
2021/12/25 12:28:47;;;;;;;;;;;21.60;38.50;;;;;;487445;243;1440;-76
2021/12/25 12:30:48;;;;;;;;;;;21.50;38.40;;;;;;487412;243;1044;-76
2021/12/25 12:32:50;;;;;;;;;;;21.40;38.70;;;;;;487360;243;1201;-76
2021/12/25 12:34:51;;;;;;;;;;;21.40;38.70;;;;;;487497;243;1212;-76
2021/12/25 12:36:53;;;;;;;;;;;21.50;38.60;;;;;;487320;243;1141;-77
2021/12/25 12:38:59;;;;;;;;;;;21.60;38.60;;;;;;487390;243;1015;-76
2021/12/25 12:40:56;;;;;;;;;;;21.70;38.40;;;;;;487147;244;1332;-76
2021/12/25 12:43:00;;;;;;;;;;;21.60;38.40;;;;;;487351;243;1100;-76
2021/12/25 12:44:59;;;;;;;;;;;21.30;38.60;;;;;;487359;244;1360;-76
2021/12/25 12:47:01;;;;;;;;;;;21.60;38.30;;;;;;487285;243;2123;-76